createdAt,value
2022-10-30T00:00:50.568Z,7.47
2022-10-30T00:03:19.148Z,7.50
2022-10-30T00:05:48.969Z,8.17
2022-10-30T00:08:19.726Z,7.60
2022-10-30T00:11:40.925Z,7.70
2022-10-30T00:14:09.549Z,7.97
2022-10-30T00:16:37.691Z,7.23
2022-10-30T00:19:05.822Z,7.60
2022-10-30T00:21:33.962Z,7.83
2022-10-30T00:24:03.515Z,7.67
2022-10-30T00:26:32.359Z,7.80
2022-10-30T00:29:00.538Z,7.47
2022-10-30T00:31:28.659Z,7.80
2022-10-30T00:33:56.969Z,7.40
2022-10-30T00:36:25.410Z,7.30
2022-10-30T00:38:53.592Z,7.10
2022-10-30T00:41:25.365Z,7.23
2022-10-30T00:43:53.528Z,7.27
2022-10-30T00:46:28.553Z,7.33
2022-10-30T00:48:59.681Z,6.77
2022-10-30T00:51:30.122Z,6.83
2022-10-30T00:54:01.353Z,7.93
2022-10-30T00:56:31.615Z,7.47
2022-10-30T00:59:05.704Z,7.30
2022-10-30T01:01:43.624Z,6.73
2022-10-30T01:04:14.045Z,7.03
2022-10-30T01:06:48.181Z,7.47
2022-10-30T01:09:16.862Z,6.90
2022-10-30T01:11:46.701Z,7.03
2022-10-30T01:14:18.341Z,7.27
2022-10-30T01:17:05.729Z,7.10
2022-10-30T01:19:43.873Z,6.97
2022-10-30T01:22:30.659Z,6.87
2022-10-30T01:25:08.588Z,6.13
2022-10-30T01:27:46.452Z,6.80
2022-10-30T01:30:29.770Z,6.63
2022-10-30T01:33:12.864Z,6.30
2022-10-30T01:35:48.616Z,6.50
2022-10-30T01:38:22.672Z,6.77
2022-10-30T01:40:54.118Z,6.77
2022-10-30T01:43:23.692Z,7.00
2022-10-30T01:46:10.649Z,6.63
2022-10-30T01:49:00.298Z,6.60
2022-10-30T01:51:41.360Z,7.23
2022-10-30T01:54:34.195Z,7.27
2022-10-30T01:57:09.650Z,7.10
2022-10-30T01:59:48.534Z,7.27
2022-10-30T02:02:17.317Z,7.17
2022-10-30T02:04:45.587Z,6.90
2022-10-30T02:07:14.175Z,6.90
2022-10-30T02:09:47.953Z,6.70
2022-10-30T02:12:17.738Z,7.27
2022-10-30T02:14:51.910Z,7.00
2022-10-30T02:17:21.242Z,7.00
2022-10-30T02:19:51.240Z,6.73
2022-10-30T02:22:21.110Z,7.10
2022-10-30T02:24:49.344Z,7.17
2022-10-30T02:27:18.184Z,6.90
2022-10-30T02:29:46.423Z,7.00
2022-10-30T02:32:14.619Z,6.70
2022-10-30T02:34:44.068Z,6.80
2022-10-30T02:37:12.408Z,6.73
2022-10-30T02:39:42.796Z,6.80
2022-10-30T02:42:11.544Z,6.80
2022-10-30T02:44:39.731Z,7.00
2022-10-30T02:47:07.970Z,6.40
2022-10-30T02:49:36.149Z,7.07
2022-10-30T02:52:04.999Z,7.00
2022-10-30T02:54:33.178Z,6.63
2022-10-30T02:57:02.781Z,6.90
2022-10-30T02:59:31.236Z,7.03
2022-10-30T03:02:00.083Z,7.20
2022-10-30T03:04:28.708Z,6.43
2022-10-30T03:06:56.906Z,7.00
2022-10-30T03:09:25.359Z,7.60
2022-10-30T03:11:53.575Z,7.07
2022-10-30T03:14:26.099Z,6.77
2022-10-30T03:16:54.309Z,7.10
2022-10-30T03:19:22.584Z,7.20
2022-10-30T03:21:50.900Z,7.40
2022-10-30T03:24:19.079Z,7.40
2022-10-30T03:26:48.435Z,7.33
2022-10-30T03:29:16.592Z,7.33
2022-10-30T03:31:46.460Z,7.00
2022-10-30T03:34:21.083Z,7.57
2022-10-30T03:36:49.323Z,7.20
2022-10-30T03:39:17.550Z,7.07
2022-10-30T03:41:47.453Z,7.00
2022-10-30T03:44:15.688Z,7.10
2022-10-30T03:46:43.909Z,6.90
2022-10-30T03:49:27.072Z,7.00
2022-10-30T03:51:56.377Z,6.80
2022-10-30T03:54:26.589Z,6.60
2022-10-30T03:56:54.763Z,6.70
2022-10-30T03:59:24.380Z,7.20
2022-10-30T04:02:15.213Z,7.20
2022-10-30T04:04:45.248Z,7.30
2022-10-30T04:07:13.788Z,6.87
2022-10-30T04:09:42.051Z,7.20
2022-10-30T04:12:10.238Z,6.67
2022-10-30T04:14:38.438Z,6.97
2022-10-30T04:17:07.099Z,6.87
2022-10-30T04:19:35.323Z,7.10
2022-10-30T04:22:06.137Z,7.20
2022-10-30T04:24:34.914Z,7.77
2022-10-30T04:27:03.609Z,7.47
2022-10-30T04:29:31.916Z,7.10
2022-10-30T04:32:00.224Z,6.97
2022-10-30T04:34:28.423Z,7.23
2022-10-30T04:36:56.617Z,7.80
2022-10-30T04:39:26.218Z,7.47
2022-10-30T04:42:00.214Z,7.77
2022-10-30T04:44:34.566Z,7.33
2022-10-30T04:47:03.548Z,8.30
2022-10-30T04:49:31.714Z,7.90
2022-10-30T04:51:59.965Z,7.97
2022-10-30T04:54:30.290Z,8.37
2022-10-30T04:56:58.541Z,8.47
2022-10-30T04:59:26.745Z,8.03
2022-10-30T05:01:56.069Z,8.40
2022-10-30T05:04:24.420Z,8.37
2022-10-30T05:06:52.770Z,8.30
2022-10-30T05:09:20.945Z,8.43
2022-10-30T05:11:51.013Z,8.23
2022-10-30T05:14:19.572Z,8.10
2022-10-30T05:16:47.852Z,7.43
2022-10-30T05:19:16.014Z,7.47
2022-10-30T05:21:52.288Z,8.97
2022-10-30T05:24:20.726Z,8.50
2022-10-30T05:26:50.343Z,8.33
2022-10-30T05:29:18.715Z,8.10
2022-10-30T05:31:46.948Z,8.57
2022-10-30T05:34:17.901Z,8.40
2022-10-30T05:36:48.923Z,8.17
2022-10-30T05:39:17.752Z,7.83
2022-10-30T05:41:50.856Z,7.90
2022-10-30T05:44:34.256Z,8.73
2022-10-30T05:47:09.540Z,8.70
2022-10-30T05:49:38.569Z,8.40
2022-10-30T05:52:11.939Z,7.83
2022-10-30T05:54:40.123Z,8.20
2022-10-30T05:57:15.455Z,8.37
2022-10-30T05:59:43.706Z,9.07
2022-10-30T06:02:11.942Z,8.83
2022-10-30T06:04:40.113Z,9.13
2022-10-30T06:07:13.396Z,9.63
2022-10-30T06:09:41.755Z,9.10
2022-10-30T06:12:30.617Z,8.20
2022-10-30T06:15:09.406Z,8.13
2022-10-30T06:17:38.723Z,8.57
2022-10-30T06:20:16.609Z,9.20
2022-10-30T06:22:55.521Z,9.07
2022-10-30T06:25:27.278Z,8.83
2022-10-30T06:28:02.753Z,8.40
2022-10-30T06:30:32.430Z,8.87
2022-10-30T06:33:03.139Z,7.87
2022-10-30T06:35:32.503Z,7.90
2022-10-30T06:38:01.865Z,8.00
2022-10-30T06:40:32.237Z,8.10
2022-10-30T06:43:20.961Z,8.53
2022-10-30T06:46:01.036Z,8.53
2022-10-30T06:48:31.223Z,7.90
2022-10-30T06:51:00.937Z,7.93
2022-10-30T06:53:32.344Z,8.40
2022-10-30T06:56:20.460Z,7.83
2022-10-30T06:59:11.701Z,7.67
2022-10-30T07:01:54.249Z,7.40
2022-10-30T07:04:26.330Z,8.00
2022-10-30T07:06:56.897Z,7.40
2022-10-30T07:09:25.157Z,7.07
2022-10-30T07:11:56.703Z,7.00
2022-10-30T07:14:45.296Z,7.23
2022-10-30T07:17:39.535Z,7.30
2022-10-30T07:20:13.715Z,7.13
2022-10-30T07:22:42.005Z,7.27
2022-10-30T07:25:10.406Z,6.90
2022-10-30T07:27:55.686Z,6.97
2022-10-30T07:30:59.343Z,6.87
2022-10-30T07:33:46.237Z,7.30
2022-10-30T07:36:43.923Z,7.47
2022-10-30T07:39:25.063Z,6.57
2022-10-30T07:42:11.669Z,6.90
2022-10-30T07:45:03.266Z,7.03
2022-10-30T07:47:43.974Z,7.17
2022-10-30T07:50:18.694Z,6.90
2022-10-30T07:52:46.880Z,6.90
2022-10-30T07:55:18.383Z,7.30
2022-10-30T07:57:49.771Z,6.80
2022-10-30T08:00:26.875Z,7.13
2022-10-30T08:03:06.296Z,6.23
2022-10-30T08:05:56.024Z,7.00
2022-10-30T08:08:30.111Z,6.50
2022-10-30T08:11:09.459Z,6.80
2022-10-30T08:13:37.706Z,6.73
2022-10-30T08:16:06.441Z,6.23
2022-10-30T08:18:36.562Z,6.73
2022-10-30T08:21:05.606Z,6.60
2022-10-30T08:23:33.787Z,6.00
2022-10-30T08:26:08.300Z,6.40
2022-10-30T08:28:38.339Z,5.90
2022-10-30T08:31:09.886Z,6.03
2022-10-30T08:34:18.160Z,5.93
2022-10-30T08:36:50.796Z,6.18
2022-10-30T08:39:19.111Z,6.07
2022-10-30T08:41:59.099Z,6.32
2022-10-30T08:44:30.792Z,6.30
2022-10-30T08:47:17.558Z,5.30
2022-10-30T08:49:48.361Z,5.78
2022-10-30T08:52:20.010Z,5.65
2022-10-30T08:54:54.316Z,5.70
2022-10-30T08:57:25.238Z,5.25
2022-10-30T08:59:55.529Z,6.22
2022-10-30T09:03:02.447Z,5.30
2022-10-30T09:05:51.137Z,5.45
2022-10-30T09:08:39.531Z,5.32
2022-10-30T09:11:26.362Z,5.40
2022-10-30T09:13:54.767Z,5.32
2022-10-30T09:16:24.079Z,5.82
2022-10-30T09:18:52.223Z,5.78
2022-10-30T09:21:22.214Z,4.82
2022-10-30T09:23:53.365Z,4.90
2022-10-30T09:26:36.448Z,6.28
2022-10-30T09:29:11.971Z,5.07
2022-10-30T09:31:46.106Z,5.30
2022-10-30T09:34:18.573Z,5.18
2022-10-30T09:36:54.400Z,5.22
2022-10-30T09:39:23.623Z,5.18
2022-10-30T09:42:22.375Z,5.20
2022-10-30T09:48:14.606Z,5.25
2022-10-30T09:51:12.876Z,5.32
2022-10-30T09:53:54.683Z,5.07
2022-10-30T09:56:35.311Z,5.03
2022-10-30T09:59:18.794Z,5.25
2022-10-30T10:01:53.878Z,5.03
2022-10-30T10:04:29.671Z,4.75
2022-10-30T10:07:21.855Z,5.22
2022-10-30T10:10:29.409Z,5.45
2022-10-30T10:13:06.140Z,5.22
2022-10-30T10:15:40.879Z,5.45
2022-10-30T10:18:24.212Z,5.13
2022-10-30T10:20:55.983Z,5.05
2022-10-30T10:23:35.467Z,5.53
2022-10-30T10:26:11.197Z,5.28
2022-10-30T10:28:51.907Z,5.18
2022-10-30T10:31:31.394Z,4.72
2022-10-30T10:34:17.432Z,5.00
2022-10-30T10:36:56.507Z,5.50
2022-10-30T10:39:41.599Z,5.00
2022-10-30T10:42:20.265Z,4.85
2022-10-30T10:45:00.609Z,5.10
2022-10-30T10:47:41.104Z,5.25
2022-10-30T10:50:20.800Z,4.78
2022-10-30T10:52:53.521Z,5.72
2022-10-30T10:55:25.669Z,5.30
2022-10-30T10:57:59.269Z,4.88
2022-10-30T11:00:29.735Z,5.40
2022-10-30T11:03:03.778Z,5.50
2022-10-30T11:05:36.247Z,5.20
2022-10-30T11:08:13.257Z,4.40
2022-10-30T11:10:41.440Z,5.10
2022-10-30T11:13:14.033Z,5.05
2022-10-30T11:15:52.458Z,4.80
2022-10-30T11:18:20.589Z,4.85
2022-10-30T11:20:58.131Z,5.60
2022-10-30T11:23:39.230Z,5.38
2022-10-30T11:26:28.415Z,5.25
2022-10-30T11:29:00.190Z,5.40
2022-10-30T11:31:34.700Z,4.85
2022-10-30T11:34:34.576Z,4.97
2022-10-30T11:37:03.550Z,5.03
2022-10-30T11:39:34.040Z,4.88
2022-10-30T11:42:07.263Z,4.88
2022-10-30T11:44:39.452Z,5.18
2022-10-30T11:47:10.298Z,5.05
2022-10-30T11:49:44.784Z,4.90
2022-10-30T11:52:14.445Z,5.05
2022-10-30T11:54:46.167Z,5.07
2022-10-30T11:57:25.692Z,4.85
2022-10-30T12:00:03.737Z,5.03
2022-10-30T12:02:43.005Z,4.80
2022-10-30T12:05:31.884Z,4.97
2022-10-30T12:08:21.723Z,5.10
2022-10-30T12:10:59.756Z,5.03
2022-10-30T12:13:29.258Z,4.97
2022-10-30T12:16:23.060Z,4.90
2022-10-30T12:19:01.839Z,5.00
2022-10-30T12:21:35.995Z,4.95
2022-10-30T12:24:09.468Z,4.75
2022-10-30T12:26:39.507Z,4.70
2022-10-30T12:29:14.759Z,6.18
2022-10-30T12:31:50.149Z,5.10
2022-10-30T12:34:29.596Z,4.97
2022-10-30T12:37:05.925Z,4.63
2022-10-30T12:39:46.132Z,5.38
2022-10-30T12:42:17.280Z,4.63
2022-10-30T12:44:49.207Z,5.47
2022-10-30T12:47:28.815Z,4.85
2022-10-30T12:52:38.016Z,4.85
2022-10-30T12:55:17.291Z,4.68
2022-10-30T12:57:51.032Z,4.70
2022-10-30T13:00:19.900Z,4.10
2022-10-30T13:02:57.941Z,4.13
2022-10-30T13:05:31.318Z,4.55
2022-10-30T13:08:08.038Z,4.40
2022-10-30T13:10:41.380Z,4.43
2022-10-30T13:13:14.255Z,4.65
2022-10-30T13:15:47.704Z,4.38
2022-10-30T13:18:19.319Z,4.68
2022-10-30T13:21:00.522Z,4.47
2022-10-30T13:23:36.862Z,4.72
2022-10-30T13:26:13.862Z,4.30
2022-10-30T13:28:48.540Z,4.60
2022-10-30T13:31:27.029Z,4.22
2022-10-30T13:34:02.788Z,4.60
2022-10-30T13:36:37.558Z,4.95
2022-10-30T13:39:17.211Z,5.35
2022-10-30T13:42:00.212Z,4.82
2022-10-30T13:44:37.539Z,4.63
2022-10-30T13:47:15.634Z,4.75
2022-10-30T13:49:59.807Z,4.35
2022-10-30T13:52:30.817Z,4.65
2022-10-30T13:55:03.099Z,5.57
2022-10-30T13:57:38.193Z,4.55
2022-10-30T14:00:15.987Z,4.45
2022-10-30T14:02:57.437Z,4.95
2022-10-30T14:05:36.497Z,4.68
2022-10-30T14:08:15.012Z,4.57
2022-10-30T14:10:47.126Z,4.88
2022-10-30T14:13:28.879Z,4.55
2022-10-30T14:16:01.039Z,4.32
2022-10-30T14:18:45.204Z,4.55
2022-10-30T14:21:51.698Z,4.40
2022-10-30T14:24:23.499Z,4.68
2022-10-30T14:26:54.417Z,4.40
2022-10-30T14:29:50.823Z,4.80
2022-10-30T14:32:41.301Z,4.90
2022-10-30T14:35:34.745Z,4.70
2022-10-30T14:38:28.484Z,4.72
2022-10-30T14:41:25.859Z,4.70
2022-10-30T14:44:05.829Z,4.68
2022-10-30T14:46:38.865Z,4.25
2022-10-30T14:49:35.154Z,4.22
2022-10-30T14:52:16.622Z,4.30
2022-10-30T14:54:55.546Z,4.47
2022-10-30T14:57:45.079Z,5.85
2022-10-30T15:00:31.301Z,14.88
2022-10-30T15:03:06.584Z,7.32
2022-10-30T15:05:45.856Z,7.10
2022-10-30T15:08:37.100Z,8.27
2022-10-30T15:11:31.138Z,6.28
2022-10-30T15:14:02.520Z,6.55
2022-10-30T15:16:31.257Z,5.95
2022-10-30T15:19:02.887Z,6.50
2022-10-30T15:21:34.873Z,6.15
2022-10-30T15:24:03.444Z,7.30
2022-10-30T15:26:37.506Z,10.57
2022-10-30T15:29:06.922Z,6.57
2022-10-30T15:31:35.084Z,7.82
2022-10-30T15:34:03.207Z,6.75
2022-10-30T15:36:41.493Z,6.07
2022-10-30T15:39:12.955Z,5.90
2022-10-30T15:41:45.173Z,5.47
2022-10-30T15:46:46.811Z,5.10
2022-10-30T15:49:20.624Z,5.53
2022-10-30T15:51:49.198Z,5.25
2022-10-30T15:54:22.237Z,5.45
2022-10-30T15:57:31.200Z,5.57
2022-10-30T15:59:52.655Z,5.78
2022-10-30T16:02:23.092Z,5.93
2022-10-30T16:04:51.660Z,5.70
2022-10-30T16:07:22.622Z,6.22
2022-10-30T16:09:55.640Z,5.75
2022-10-30T16:12:27.685Z,6.25
2022-10-30T16:14:56.895Z,6.38
2022-10-30T16:17:26.822Z,6.53
2022-10-30T16:19:58.767Z,6.85
2022-10-30T16:22:30.058Z,6.70
2022-10-30T16:24:59.103Z,6.20
2022-10-30T16:27:28.788Z,9.73
2022-10-30T16:30:00.218Z,7.32
2022-10-30T16:32:31.682Z,6.93
2022-10-30T16:35:01.844Z,7.97
2022-10-30T16:37:39.521Z,7.75
2022-10-30T16:40:14.033Z,7.85
2022-10-30T16:42:47.864Z,7.78
2022-10-30T16:45:46.451Z,7.95
2022-10-30T16:48:20.430Z,8.70
2022-10-30T16:50:49.203Z,8.40
2022-10-30T16:53:21.460Z,9.10
2022-10-30T16:55:49.721Z,8.70
2022-10-30T16:58:20.630Z,10.82
2022-10-30T17:00:54.515Z,10.95
2022-10-30T17:03:26.567Z,12.27
2022-10-30T17:06:00.518Z,11.60
2022-10-30T17:08:35.557Z,11.27
2022-10-30T17:11:06.699Z,13.55
2022-10-30T17:13:38.676Z,12.23
2022-10-30T17:16:32.095Z,11.65
2022-10-30T17:19:01.825Z,12.35
2022-10-30T17:21:38.531Z,12.80
2022-10-30T17:24:07.338Z,13.30
2022-10-30T17:26:39.719Z,11.43
2022-10-30T17:29:44.994Z,12.32
2022-10-30T17:32:20.144Z,11.15
2022-10-30T17:34:49.224Z,11.25
2022-10-30T17:37:17.476Z,10.82
2022-10-30T17:39:45.615Z,11.38
2022-10-30T17:42:13.814Z,12.73
2022-10-30T17:44:43.704Z,12.63
2022-10-30T17:47:16.411Z,11.60
2022-10-30T17:49:45.317Z,12.00
2022-10-30T17:52:14.967Z,11.47
2022-10-30T17:54:44.321Z,12.25
2022-10-30T17:57:13.573Z,11.63
2022-10-30T17:59:44.195Z,11.90
2022-10-30T18:02:15.254Z,12.67
2022-10-30T18:04:43.949Z,13.00
2022-10-30T18:07:12.769Z,12.73
2022-10-30T18:09:41.090Z,12.83
2022-10-30T18:12:13.819Z,14.40
2022-10-30T18:14:45.496Z,14.57
2022-10-30T18:17:13.855Z,15.20
2022-10-30T18:19:42.165Z,15.35
2022-10-30T18:22:11.326Z,14.93
2022-10-30T18:24:39.453Z,15.00
2022-10-30T18:27:07.641Z,14.70
2022-10-30T18:29:35.791Z,14.63
2022-10-30T18:32:09.593Z,14.90
2022-10-30T18:34:37.976Z,13.57
2022-10-30T18:37:06.101Z,14.10
2022-10-30T18:39:34.352Z,13.00
2022-10-30T18:42:02.658Z,14.43
2022-10-30T18:44:30.859Z,13.57
2022-10-30T18:47:02.947Z,13.40
2022-10-30T18:49:33.572Z,13.23
2022-10-30T18:52:01.801Z,14.07
2022-10-30T18:54:29.960Z,13.10
2022-10-30T18:56:58.132Z,12.60
2022-10-30T18:59:26.352Z,13.03
2022-10-30T19:01:54.666Z,13.37
2022-10-30T19:04:22.964Z,13.10
2022-10-30T19:06:52.770Z,13.17
2022-10-30T19:09:20.924Z,13.03
2022-10-30T19:11:49.069Z,14.60
2022-10-30T19:14:17.234Z,12.80
2022-10-30T19:16:45.414Z,14.60
2022-10-30T19:19:14.889Z,14.23
2022-10-30T19:21:43.100Z,14.17
2022-10-30T19:24:15.045Z,14.00
2022-10-30T19:26:43.208Z,13.30
2022-10-30T19:29:11.364Z,14.40
2022-10-30T19:31:39.519Z,14.57
2022-10-30T19:34:07.685Z,14.10
2022-10-30T19:36:37.133Z,13.30
2022-10-30T19:39:11.183Z,12.27
2022-10-30T19:41:41.238Z,12.17
2022-10-30T19:44:09.958Z,12.10
2022-10-30T19:46:38.438Z,13.30
2022-10-30T19:49:17.169Z,11.77
2022-10-30T19:51:45.341Z,12.73
2022-10-30T19:54:13.564Z,12.17
2022-10-30T19:56:43.960Z,12.70
2022-10-30T19:59:14.106Z,14.37
2022-10-30T20:01:43.785Z,13.53
2022-10-30T20:04:12.119Z,14.47
2022-10-30T20:06:40.365Z,15.03
2022-10-30T20:09:10.936Z,17.67
2022-10-30T20:11:39.173Z,15.00
2022-10-30T20:14:08.891Z,15.00
2022-10-30T20:16:37.060Z,15.13
2022-10-30T20:19:23.287Z,14.60
2022-10-30T20:21:51.411Z,15.33
2022-10-30T20:24:19.628Z,15.87
2022-10-30T20:26:47.816Z,16.07
2022-10-30T20:29:17.649Z,16.43
2022-10-30T20:31:45.960Z,15.13
2022-10-30T20:34:14.131Z,14.30
2022-10-30T20:36:42.307Z,14.10
2022-10-30T20:39:12.385Z,13.57
2022-10-30T20:41:42.288Z,12.47
2022-10-30T20:44:13.278Z,13.23
2022-10-30T20:46:43.084Z,13.60
2022-10-30T20:49:17.635Z,14.87
2022-10-30T20:51:46.839Z,15.17
2022-10-30T20:54:15.032Z,13.60
2022-10-30T20:56:43.199Z,14.00
2022-10-30T20:59:11.420Z,12.93
2022-10-30T21:01:39.803Z,13.17
2022-10-30T21:04:09.450Z,13.57
2022-10-30T21:06:37.592Z,12.23
2022-10-30T21:09:06.278Z,10.53
2022-10-30T21:11:34.531Z,12.77
2022-10-30T21:14:02.708Z,12.03
2022-10-30T21:16:30.840Z,11.77
2022-10-30T21:18:59.013Z,13.07
2022-10-30T21:21:28.550Z,13.73
2022-10-30T21:23:57.112Z,13.47
2022-10-30T21:26:25.656Z,13.93
2022-10-30T21:28:53.976Z,15.07
2022-10-30T21:31:22.147Z,14.53
2022-10-30T21:33:50.370Z,14.47
2022-10-30T21:36:20.896Z,14.83
2022-10-30T21:38:50.664Z,14.47
2022-10-30T21:41:20.838Z,14.97
2022-10-30T21:43:53.870Z,15.00
2022-10-30T21:46:23.374Z,15.20
2022-10-30T21:48:52.011Z,15.57
2022-10-30T21:51:22.504Z,14.23
2022-10-30T21:53:52.135Z,15.43
2022-10-30T21:56:22.332Z,15.97
2022-10-30T21:58:51.065Z,14.70
2022-10-30T22:01:23.048Z,15.50
2022-10-30T22:03:51.531Z,15.33
2022-10-30T22:06:21.821Z,15.23
2022-10-30T22:08:52.967Z,15.97
2022-10-30T22:11:22.577Z,16.07
2022-10-30T22:13:54.845Z,16.40
2022-10-30T22:16:23.596Z,14.30
2022-10-30T22:18:51.893Z,13.97
2022-10-30T22:21:20.233Z,14.93
2022-10-30T22:23:48.431Z,14.73
2022-10-30T22:26:20.072Z,13.70
2022-10-30T22:28:48.616Z,14.80
2022-10-30T22:31:19.154Z,15.20
2022-10-30T22:33:47.441Z,14.33
2022-10-30T22:36:17.791Z,15.37
2022-10-30T22:38:46.579Z,14.50
2022-10-30T22:41:17.927Z,15.00
2022-10-30T22:43:47.700Z,13.30
2022-10-30T22:46:17.523Z,14.57
2022-10-30T22:48:46.348Z,15.97
2022-10-30T22:51:16.740Z,14.13
2022-10-30T22:53:46.361Z,14.53
2022-10-30T22:56:18.110Z,13.63
2022-10-30T22:58:47.366Z,14.67
2022-10-30T23:01:17.843Z,15.23
2022-10-30T23:03:46.516Z,14.30
2022-10-30T23:06:14.721Z,14.40
2022-10-30T23:08:43.020Z,14.87
2022-10-30T23:11:12.293Z,14.50
2022-10-30T23:13:42.430Z,14.70
2022-10-30T23:16:14.015Z,15.50
2022-10-30T23:18:42.406Z,14.57
2022-10-30T23:21:14.137Z,14.30
2022-10-30T23:23:43.627Z,13.80
2022-10-30T23:26:15.809Z,12.90
2022-10-30T23:28:46.272Z,13.03
2022-10-30T23:31:19.846Z,14.03
2022-10-30T23:33:49.075Z,14.03
2022-10-30T23:36:18.255Z,14.60
2022-10-30T23:38:51.067Z,14.80
2022-10-30T23:41:19.244Z,14.10
2022-10-30T23:43:48.981Z,14.60
2022-10-30T23:46:17.173Z,14.57
2022-10-30T23:48:45.432Z,13.60
2022-10-30T23:51:13.658Z,14.60
2022-10-30T23:53:41.911Z,13.77
2022-10-30T23:56:10.054Z,13.97
2022-10-30T23:58:38.280Z,14.00
